Time;durP1;ratioP1;P1;durP2;ratioP2;P2;SDS_P1;SDS_P2;PMS_P1;PMS_P2;Temp;Humidity;BMP_temperature;BMP_pressure;BME280_temperature;BME280_humidity;BME280_pressure;Samples;Min_cycle;Max_cycle;Signal;HPM_P1;HPM_P2
2022/03/16 00:01:02;;;;;;;168.48;58.42;;;;;;;;;;5094294;28;20043;-79
2022/03/16 00:03:28;;;;;;;170.20;58.72;;;;;;;;;;5076143;28;20032;-79
2022/03/16 00:05:54;;;;;;;160.75;57.03;;;;;;;;;;5098341;28;20463;-80
2022/03/16 00:08:19;;;;;;;157.32;56.35;;;;;;;;;;5098226;28;20032;-80
2022/03/16 00:10:45;;;;;;;157.20;55.38;;;;;;;;;;5079686;28;20059;-79
2022/03/16 00:13:10;;;;;;;156.52;55.13;;;;;;;;;;5097944;28;20060;-79
2022/03/16 00:15:35;;;;;;;151.57;54.40;;;;;;;;;;5080077;28;20039;-79
2022/03/16 00:18:01;;;;;;;160.32;53.40;;;;;;;;;;5097897;28;20028;-79
2022/03/16 00:20:27;;;;;;;149.13;53.45;;;;;;;;;;5100399;28;20028;-80
2022/03/16 00:22:52;;;;;;;150.88;52.30;;;;;;;;;;5081430;28;20028;-79
2022/03/16 00:25:18;;;;;;;155.32;53.90;;;;;;;;;;5085585;28;20117;-79
2022/03/16 00:27:43;;;;;;;155.05;55.17;;;;;;;;;;5086571;28;20028;-78
2022/03/16 00:30:10;;;;;;;175.05;59.15;;;;;;;;;;5081830;28;20028;-79
2022/03/16 00:32:35;;;;;;;163.70;56.33;;;;;;;;;;5084184;28;20032;-80
2022/03/16 00:35:00;;;;;;;170.48;57.35;;;;;;;;;;5108443;28;20032;-80
2022/03/16 00:37:28;;;;;;;177.38;60.35;;;;;;;;;;5107598;28;20020;-80
2022/03/16 00:39:53;;;;;;;177.98;60.30;;;;;;;;;;5085630;28;20035;-79
2022/03/16 00:42:19;;;;;;;170.68;55.58;;;;;;;;;;5085899;28;20036;-79
2022/03/16 00:44:44;;;;;;;168.65;56.78;;;;;;;;;;5083984;28;20020;-79
2022/03/16 00:47:10;;;;;;;170.60;55.00;;;;;;;;;;5098071;28;20024;-79
2022/03/16 00:49:35;;;;;;;159.00;55.03;;;;;;;;;;5097557;28;20028;-79
2022/03/16 00:52:01;;;;;;;169.02;55.60;;;;;;;;;;5079501;28;20357;-79
2022/03/16 00:54:26;;;;;;;153.85;52.50;;;;;;;;;;5079180;28;20118;-79
2022/03/16 00:56:52;;;;;;;152.48;52.47;;;;;;;;;;5097130;28;20426;-79
2022/03/16 00:59:17;;;;;;;159.32;50.60;;;;;;;;;;5078900;28;20028;-79
2022/03/16 01:01:43;;;;;;;162.80;53.10;;;;;;;;;;5097394;28;20035;-79
2022/03/16 01:04:08;;;;;;;156.55;51.72;;;;;;;;;;5097592;28;20445;-78
2022/03/16 01:06:34;;;;;;;155.20;52.58;;;;;;;;;;5079114;28;20067;-80
2022/03/16 01:08:59;;;;;;;179.57;64.07;;;;;;;;;;5078839;28;20127;-79
2022/03/16 01:11:25;;;;;;;181.02;59.78;;;;;;;;;;5096916;28;20032;-80
2022/03/16 01:13:50;;;;;;;153.73;53.63;;;;;;;;;;5096760;28;20050;-80
2022/03/16 01:16:16;;;;;;;171.05;56.50;;;;;;;;;;5095271;28;20035;-80
2022/03/16 01:18:42;;;;;;;173.55;58.30;;;;;;;;;;5062223;28;20085;-80
2022/03/16 01:21:08;;;;;;;172.52;57.53;;;;;;;;;;5096765;28;20032;-79
2022/03/16 01:23:34;;;;;;;171.38;56.03;;;;;;;;;;5078488;28;20035;-79
2022/03/16 01:26:00;;;;;;;164.43;56.08;;;;;;;;;;5078480;28;20032;-79
2022/03/16 01:28:25;;;;;;;162.90;52.92;;;;;;;;;;5078528;28;20377;-80
2022/03/16 01:30:51;;;;;;;141.60;50.92;;;;;;;;;;5096757;28;20109;-79
2022/03/16 01:33:16;;;;;;;133.82;49.75;;;;;;;;;;5096949;28;20027;-80
2022/03/16 01:35:42;;;;;;;134.80;45.20;;;;;;;;;;5061924;28;20366;-79
2022/03/16 01:38:08;;;;;;;135.27;49.13;;;;;;;;;;5096335;28;20433;-79
2022/03/16 01:40:33;;;;;;;113.18;42.35;;;;;;;;;;5077525;28;20127;-79
2022/03/16 01:42:59;;;;;;;141.77;46.88;;;;;;;;;;5078079;28;20123;-79
2022/03/16 01:45:24;;;;;;;130.52;42.97;;;;;;;;;;5078081;28;20381;-79
2022/03/16 01:47:50;;;;;;;115.72;37.63;;;;;;;;;;5044913;28;20028;-79
2022/03/16 01:50:15;;;;;;;115.90;37.35;;;;;;;;;;5096515;28;20039;-80
2022/03/16 01:52:41;;;;;;;114.97;36.42;;;;;;;;;;5060908;28;20036;-80
2022/03/16 01:55:07;;;;;;;104.80;36.78;;;;;;;;;;5061557;28;20036;-80
2022/03/16 01:57:35;;;;;;;100.15;37.00;;;;;;;;;;5095771;28;20078;-79
2022/03/16 02:00:03;;;;;;;99.70;33.55;;;;;;;;;;5077760;28;20093;-79
2022/03/16 02:02:29;;;;;;;94.15;35.05;;;;;;;;;;5077944;28;20127;-79
2022/03/16 02:04:55;;;;;;;96.93;35.47;;;;;;;;;;5095899;28;20365;-80
2022/03/16 02:07:20;;;;;;;101.63;37.33;;;;;;;;;;5095789;28;20032;-80
2022/03/16 02:09:46;;;;;;;105.10;37.85;;;;;;;;;;5077939;28;20441;-80
2022/03/16 02:12:12;;;;;;;106.68;37.78;;;;;;;;;;5077878;28;20039;-80
2022/03/16 02:14:37;;;;;;;109.03;40.58;;;;;;;;;;5077545;28;20043;-80
2022/03/16 02:17:03;;;;;;;127.85;41.80;;;;;;;;;;5096197;28;20107;-79
2022/03/16 02:19:32;;;;;;;133.60;46.63;;;;;;;;;;5095803;28;20036;-79
2022/03/16 02:22:02;;;;;;;118.60;44.60;;;;;;;;;;5077293;28;20118;-78
2022/03/16 02:24:29;;;;;;;119.53;44.10;;;;;;;;;;5077683;28;20441;-79
2022/03/16 02:26:56;;;;;;;124.10;44.22;;;;;;;;;;5077026;28;20035;-79
2022/03/16 02:29:21;;;;;;;129.55;46.03;;;;;;;;;;5061124;28;20036;-79
2022/03/16 02:31:47;;;;;;;121.13;43.97;;;;;;;;;;5095597;28;20044;-78
2022/03/16 02:34:12;;;;;;;114.93;42.97;;;;;;;;;;5077231;28;20531;-79
2022/03/16 02:36:38;;;;;;;113.75;42.45;;;;;;;;;;5094909;28;20028;-79
2022/03/16 02:39:03;;;;;;;111.13;41.85;;;;;;;;;;5060464;28;20127;-78
2022/03/16 02:41:29;;;;;;;120.22;42.30;;;;;;;;;;5077045;28;20458;-79
2022/03/16 02:43:54;;;;;;;121.93;43.40;;;;;;;;;;5095424;28;20115;-80
2022/03/16 02:46:20;;;;;;;117.03;42.63;;;;;;;;;;5095549;28;20028;-79
2022/03/16 02:48:46;;;;;;;117.85;42.10;;;;;;;;;;5060601;28;20039;-80
2022/03/16 02:51:11;;;;;;;116.68;42.60;;;;;;;;;;5094929;28;20036;-79
2022/03/16 02:53:36;;;;;;;111.90;41.90;;;;;;;;;;5076916;28;20390;-79
2022/03/16 02:56:02;;;;;;;117.63;42.70;;;;;;;;;;5076932;28;20059;-79
2022/03/16 02:58:28;;;;;;;114.75;43.13;;;;;;;;;;5095142;28;20035;-79
2022/03/16 03:00:54;;;;;;;120.85;43.00;;;;;;;;;;5076963;28;20441;-79
2022/03/16 03:03:19;;;;;;;108.65;41.03;;;;;;;;;;5094979;28;20132;-80
2022/03/16 03:05:45;;;;;;;108.78;39.35;;;;;;;;;;5094465;28;20024;-79
2022/03/16 03:08:10;;;;;;;104.68;41.10;;;;;;;;;;5093678;28;20032;-79
2022/03/16 03:10:36;;;;;;;113.10;41.10;;;;;;;;;;5076739;28;20096;-79
2022/03/16 03:13:01;;;;;;;112.25;44.55;;;;;;;;;;5094557;28;20032;-79
2022/03/16 03:15:27;;;;;;;121.50;44.17;;;;;;;;;;5059944;28;20025;-79
2022/03/16 03:17:52;;;;;;;120.32;44.95;;;;;;;;;;5097554;28;20054;-79
2022/03/16 03:20:19;;;;;;;118.53;43.90;;;;;;;;;;5060664;28;20020;-78
2022/03/16 03:22:45;;;;;;;117.28;43.75;;;;;;;;;;5105586;28;20052;-79
2022/03/16 03:25:11;;;;;;;131.27;45.65;;;;;;;;;;5114110;28;20039;-80
2022/03/16 03:27:37;;;;;;;116.55;42.92;;;;;;;;;;5079136;28;20027;-80
2022/03/16 03:30:03;;;;;;;118.63;43.78;;;;;;;;;;5100006;28;20028;-80
2022/03/16 03:32:29;;;;;;;173.00;58.58;;;;;;;;;;5059633;28;20377;-79
2022/03/16 03:34:55;;;;;;;148.90;53.83;;;;;;;;;;5059687;28;20041;-80
2022/03/16 03:37:21;;;;;;;131.80;46.70;;;;;;;;;;5094243;28;20026;-80
2022/03/16 03:39:47;;;;;;;112.60;41.47;;;;;;;;;;5075810;28;20032;-79
2022/03/16 03:42:13;;;;;;;127.22;43.85;;;;;;;;;;5094520;28;20077;-80
2022/03/16 03:44:38;;;;;;;116.50;42.38;;;;;;;;;;5076444;28;20361;-80
2022/03/16 03:47:08;;;;;;;114.22;40.92;;;;;;;;;;5076569;28;20373;-79
2022/03/16 03:49:34;;;;;;;110.77;39.83;;;;;;;;;;5059682;28;20434;-79
2022/03/16 03:52:00;;;;;;;130.27;45.55;;;;;;;;;;5076072;28;20403;-79
2022/03/16 03:54:25;;;;;;;118.00;44.58;;;;;;;;;;5059261;28;20028;-79
2022/03/16 03:56:51;;;;;;;115.60;44.22;;;;;;;;;;5075774;28;20032;-79
2022/03/16 03:59:16;;;;;;;119.72;44.70;;;;;;;;;;5094368;28;20035;-80
2022/03/16 04:01:42;;;;;;;120.95;42.78;;;;;;;;;;5094406;28;20028;-79
2022/03/16 04:04:07;;;;;;;127.65;48.45;;;;;;;;;;5094064;28;20151;-80
2022/03/16 04:06:33;;;;;;;123.97;43.70;;;;;;;;;;5076179;28;20024;-79
2022/03/16 04:08:59;;;;;;;111.85;42.63;;;;;;;;;;5094178;28;20585;-79
2022/03/16 04:11:24;;;;;;;115.93;40.38;;;;;;;;;;5094015;28;20118;-79
2022/03/16 04:13:50;;;;;;;108.10;39.30;;;;;;;;;;5075944;28;20077;-79
2022/03/16 04:16:15;;;;;;;108.13;40.00;;;;;;;;;;5075931;28;20369;-79
2022/03/16 04:18:40;;;;;;;107.05;39.92;;;;;;;;;;5093695;28;20467;-79
2022/03/16 04:21:06;;;;;;;112.38;40.22;;;;;;;;;;5094301;28;20064;-79
2022/03/16 04:23:31;;;;;;;120.00;43.15;;;;;;;;;;5094194;28;20036;-79
2022/03/16 04:25:57;;;;;;;114.28;42.63;;;;;;;;;;5093971;28;20028;-79
2022/03/16 04:28:22;;;;;;;104.28;40.13;;;;;;;;;;5094152;28;20026;-78
2022/03/16 04:30:48;;;;;;;109.95;38.78;;;;;;;;;;5094081;28;20024;-80
2022/03/16 04:33:13;;;;;;;113.57;38.80;;;;;;;;;;5093481;28;20039;-80
2022/03/16 04:35:38;;;;;;;112.15;39.40;;;;;;;;;;5075913;28;20082;-79
2022/03/16 04:38:04;;;;;;;109.90;39.72;;;;;;;;;;5093772;28;20059;-80
2022/03/16 04:40:29;;;;;;;109.43;40.35;;;;;;;;;;5059107;28;20035;-80
2022/03/16 04:42:55;;;;;;;111.07;40.95;;;;;;;;;;5059078;28;20105;-80
2022/03/16 04:45:20;;;;;;;108.70;40.28;;;;;;;;;;5076216;28;20039;-80
2022/03/16 04:47:46;;;;;;;111.13;40.60;;;;;;;;;;5075624;28;20035;-80
2022/03/16 04:50:11;;;;;;;109.65;40.78;;;;;;;;;;5077189;28;20028;-80
2022/03/16 04:52:47;;;;;;;120.75;43.63;;;;;;;;;;5097433;28;20032;-80
2022/03/16 04:55:13;;;;;;;124.47;42.75;;;;;;;;;;5062536;28;20306;-80
2022/03/16 04:57:38;;;;;;;123.85;45.00;;;;;;;;;;5079226;28;20047;-79
2022/03/16 05:00:05;;;;;;;117.30;43.03;;;;;;;;;;5097500;28;20032;-80
2022/03/16 05:02:30;;;;;;;133.13;45.20;;;;;;;;;;5097513;28;20032;-80
2022/03/16 05:04:56;;;;;;;131.73;45.50;;;;;;;;;;5078994;28;20496;-81
2022/03/16 05:07:21;;;;;;;152.30;52.08;;;;;;;;;;5083149;28;20039;-84
2022/03/16 05:09:47;;;;;;;137.90;47.17;;;;;;;;;;5080483;28;20040;-83
2022/03/16 05:12:12;;;;;;;143.02;49.50;;;;;;;;;;5065854;28;20050;-80
2022/03/16 05:14:38;;;;;;;147.38;52.42;;;;;;;;;;5099024;28;20039;-86
2022/03/16 05:17:03;;;;;;;142.85;50.85;;;;;;;;;;5065727;28;20065;-86
2022/03/16 05:19:32;;;;;;;134.48;49.20;;;;;;;;;;5063694;28;20077;-86
2022/03/16 05:21:57;;;;;;;149.63;52.28;;;;;;;;;;5066875;28;20137;-86
2022/03/16 05:24:37;;;;;;;153.77;55.38;;;;;;;;;;5092105;28;20067;-86
2022/03/16 05:27:03;;;;;;;156.38;53.67;;;;;;;;;;5112885;28;20028;-86
2022/03/16 05:30:09;;;;;;;167.02;59.35;;;;;;;;;;5112911;28;20095;-85
2022/03/16 05:35:59;;;;;;;161.45;55.22;;;;;;;;;;5095860;28;20042;-88
2022/03/16 05:38:58;;;;;;;166.52;58.72;;;;;;;;;;5073472;28;20178;-88
2022/03/16 05:41:33;;;;;;;181.57;59.28;;;;;;;;;;5094322;28;20048;-89
2022/03/16 05:43:59;;;;;;;191.18;62.83;;;;;;;;;;5064271;28;20032;-87
2022/03/16 05:46:39;;;;;;;187.25;61.45;;;;;;;;;;5098788;28;20048;-91
2022/03/16 05:49:28;;;;;;;;;;;;;;;;;;;;;
2022/03/16 05:51:55;;;;;;;176.02;60.55;;;;;;;;;;5089420;28;20119;-88
2022/03/16 06:09:26;;;;;;;192.88;62.83;;;;;;;;;;5788565;22;20052;-83
2022/03/16 06:11:52;;;;;;;181.13;64.90;;;;;;;;;;5054551;28;20039;-81
2022/03/16 06:14:58;;;;;;;185.32;64.72;;;;;;;;;;5078842;28;20376;-83
2022/03/16 06:18:33;;;;;;;182.93;65.45;;;;;;;;;;5060919;28;20036;-84
2022/03/16 06:21:51;;;;;;;168.43;59.90;;;;;;;;;;5085077;28;20056;-82
2022/03/16 06:33:54;;;;;;;188.48;65.15;;;;;;;;;;5215385;22;20056;-84
2022/03/16 06:39:44;;;;;;;280.38;80.43;;;;;;;;;;5363299;22;20088;-82
2022/03/16 06:42:11;;;;;;;301.13;85.05;;;;;;;;;;5031401;28;20048;-86
2022/03/16 06:45:18;;;;;;;201.57;68.40;;;;;;;;;;5066859;28;20051;-87
2022/03/16 06:50:20;;;;;;;197.70;65.88;;;;;;;;;;5211783;22;20383;-82
2022/03/16 06:52:51;;;;;;;186.07;64.00;;;;;;;;;;5071281;28;20059;-79
2022/03/16 06:55:17;;;;;;;223.23;69.55;;;;;;;;;;5041442;28;20029;-81
2022/03/16 06:57:43;;;;;;;237.77;73.22;;;;;;;;;;5056550;28;20043;-81
2022/03/16 07:00:20;;;;;;;269.92;83.07;;;;;;;;;;5054436;28;20037;-82
2022/03/16 07:03:02;;;;;;;248.27;73.70;;;;;;;;;;5051185;28;20278;-85
2022/03/16 07:05:29;;;;;;;217.55;67.55;;;;;;;;;;5054946;28;20045;-81
2022/03/16 07:07:56;;;;;;;212.88;66.93;;;;;;;;;;5034257;28;20064;-83
2022/03/16 07:10:21;;;;;;;161.93;54.28;;;;;;;;;;5053117;28;20037;-81
2022/03/16 07:12:47;;;;;;;139.32;47.20;;;;;;;;;;5053190;28;20593;-81
2022/03/16 07:15:13;;;;;;;129.68;46.30;;;;;;;;;;5069199;28;20387;-82
2022/03/16 07:17:41;;;;;;;127.95;45.83;;;;;;;;;;5072968;28;20025;-80
2022/03/16 07:20:11;;;;;;;121.75;43.80;;;;;;;;;;5057340;28;20045;-83
2022/03/16 07:22:37;;;;;;;116.28;42.00;;;;;;;;;;5037805;28;20037;-84
2022/03/16 07:25:09;;;;;;;125.10;42.50;;;;;;;;;;5055737;28;20049;-84
2022/03/16 07:27:38;;;;;;;134.50;50.03;;;;;;;;;;5054012;28;20098;-82
2022/03/16 07:30:06;;;;;;;122.28;43.60;;;;;;;;;;5059628;28;20032;-83
2022/03/16 07:32:32;;;;;;;124.15;43.63;;;;;;;;;;5037897;28;20438;-84
2022/03/16 07:34:58;;;;;;;136.48;44.30;;;;;;;;;;5055992;28;20036;-84
2022/03/16 07:37:26;;;;;;;145.38;48.58;;;;;;;;;;5048497;28;20037;-80
2022/03/16 07:39:52;;;;;;;237.10;62.78;;;;;;;;;;5042805;28;20033;-81
2022/03/16 07:42:18;;;;;;;229.35;62.67;;;;;;;;;;5066635;28;20051;-84
2022/03/16 07:44:49;;;;;;;174.20;53.78;;;;;;;;;;5059331;28;20125;-83
2022/03/16 07:47:15;;;;;;;148.38;51.15;;;;;;;;;;5053393;28;20615;-80
2022/03/16 07:53:25;;;;;;;158.00;51.33;;;;;;;;;;4969071;28;20621;-78
2022/03/16 07:59:01;;;;;;;161.27;53.55;;;;;;;;;;5085966;23;20057;-81
2022/03/16 08:05:03;;;;;;;131.23;46.05;;;;;;;;;;5070866;22;20076;-82
2022/03/16 08:07:29;;;;;;;138.43;52.13;;;;;;;;;;5037688;28;20179;-75
2022/03/16 08:09:57;;;;;;;140.48;48.22;;;;;;;;;;5039416;28;20073;-81
2022/03/16 08:12:25;;;;;;;156.88;55.85;;;;;;;;;;5030244;28;20435;-84
2022/03/16 08:14:56;;;;;;;145.50;52.72;;;;;;;;;;5024971;28;20029;-86
2022/03/16 08:17:39;;;;;;;137.95;48.35;;;;;;;;;;5019076;28;20029;-85
2022/03/16 08:23:29;;;;;;;164.25;52.53;;;;;;;;;;5091329;22;20074;-84
2022/03/16 08:26:10;;;;;;;213.05;69.57;;;;;;;;;;5038830;28;20049;-84
2022/03/16 08:28:36;;;;;;;193.02;62.70;;;;;;;;;;5036752;28;20072;-86
2022/03/16 08:31:01;;;;;;;179.07;61.50;;;;;;;;;;5033655;28;20046;-81
2022/03/16 08:36:56;;;;;;;190.43;63.25;;;;;;;;;;4997050;28;20033;-86
2022/03/16 08:41:55;;;;;;;169.07;56.47;;;;;;;;;;5070981;28;20045;-84
2022/03/16 08:44:22;;;;;;;167.13;57.47;;;;;;;;;;5042770;28;20025;-85
2022/03/16 08:46:51;;;;;;;182.27;65.03;;;;;;;;;;5076693;28;20074;-87
2022/03/16 08:52:38;;;;;;;202.85;67.57;;;;;;;;;;5091544;22;20073;-87
2022/03/16 08:55:16;;;;;;;212.38;74.53;;;;;;;;;;5050269;28;20111;-86
2022/03/16 08:57:45;;;;;;;218.50;73.35;;;;;;;;;;5063126;28;20024;-88
2022/03/16 09:00:37;;;;;;;213.15;77.03;;;;;;;;;;5078138;28;20039;-88
2022/03/16 09:03:20;;;;;;;201.38;71.07;;;;;;;;;;5058384;28;20041;-89
2022/03/16 09:05:46;;;;;;;188.55;63.47;;;;;;;;;;5039286;28;20383;-81
2022/03/16 09:08:12;;;;;;;189.80;67.60;;;;;;;;;;5046562;28;20029;-89
2022/03/16 09:10:56;;;;;;;198.63;70.15;;;;;;;;;;5019793;28;20088;-87
2022/03/16 09:13:25;;;;;;;200.68;71.55;;;;;;;;;;5054142;28;20028;-85
2022/03/16 09:16:32;;;;;;;231.75;80.80;;;;;;;;;;5015109;28;20029;-84
2022/03/16 09:19:00;;;;;;;198.07;65.90;;;;;;;;;;5051677;28;20032;-93
2022/03/16 09:21:26;;;;;;;265.73;78.00;;;;;;;;;;5062981;28;20035;-85
2022/03/16 09:23:55;;;;;;;240.68;76.03;;;;;;;;;;5060229;28;20111;-81
2022/03/16 09:26:21;;;;;;;266.48;84.60;;;;;;;;;;5082321;28;20043;-85
2022/03/16 09:28:51;;;;;;;255.07;80.32;;;;;;;;;;5072871;28;20037;-84
2022/03/16 09:31:17;;;;;;;325.45;87.32;;;;;;;;;;5056166;28;20033;-84
2022/03/16 09:33:42;;;;;;;178.32;59.97;;;;;;;;;;5076243;28;20055;-87
2022/03/16 09:36:08;;;;;;;185.90;60.95;;;;;;;;;;5061791;28;20040;-86
2022/03/16 09:38:37;;;;;;;258.08;71.63;;;;;;;;;;5067507;28;20039;-86
2022/03/16 09:41:02;;;;;;;179.13;60.88;;;;;;;;;;5086622;28;20036;-87
2022/03/16 09:43:38;;;;;;;172.82;58.40;;;;;;;;;;5062729;28;20072;-74
2022/03/16 09:46:09;;;;;;;160.90;52.15;;;;;;;;;;5074437;28;20040;-72
2022/03/16 09:54:52;;;;;;;167.15;61.80;;;;;;;;;;5149552;22;20059;-88
2022/03/16 09:57:20;;;;;;;179.48;62.00;;;;;;;;;;5096649;28;20028;-86
2022/03/16 10:00:11;;;;;;;178.98;63.33;;;;;;;;;;5106290;28;20091;-89
2022/03/16 10:02:34;;;;;;;171.90;63.63;;;;;;;;;;5093941;28;20036;-73
2022/03/16 10:05:00;;;;;;;166.15;62.55;;;;;;;;;;5094509;28;20031;-74
2022/03/16 10:07:29;;;;;;;178.70;65.30;;;;;;;;;;5077174;28;20024;-74
2022/03/16 10:16:10;;;;;;;148.73;56.88;;;;;;;;;;5629067;22;20160;-86
2022/03/16 10:24:41;;;;;;;142.43;55.65;;;;;;;;;;5107347;22;20048;-86
2022/03/16 10:27:17;;;;;;;138.55;54.90;;;;;;;;;;5102764;28;20032;-90
2022/03/16 10:33:05;;;;;;;158.07;58.00;;;;;;;;;;5058555;22;20053;-75
2022/03/16 10:35:31;;;;;;;147.32;58.13;;;;;;;;;;4999813;28;20050;-74
2022/03/16 10:38:13;;;;;;;134.65;54.03;;;;;;;;;;5032429;28;20087;-73
2022/03/16 10:40:39;;;;;;;136.70;55.65;;;;;;;;;;5017646;28;20029;-89
2022/03/16 10:49:00;;;;;;;118.05;49.70;;;;;;;;;;5038347;28;20120;-87
2022/03/16 10:51:25;;;;;;;176.15;63.38;;;;;;;;;;5029017;28;20037;-86
2022/03/16 11:04:14;;;;;;;131.15;52.90;;;;;;;;;;5141363;22;20121;-82
2022/03/16 11:06:40;;;;;;;131.05;50.08;;;;;;;;;;5042322;28;20464;-84
2022/03/16 11:09:17;;;;;;;156.18;54.33;;;;;;;;;;5055466;28;20056;-87
2022/03/16 11:14:29;;;;;;;127.55;47.78;;;;;;;;;;5047411;28;20018;-82
2022/03/16 11:16:55;;;;;;;108.82;44.78;;;;;;;;;;5075493;28;20040;-83
2022/03/16 11:25:19;;;;;;;105.18;42.03;;;;;;;;;;5322963;22;20062;-89
2022/03/16 11:27:52;;;;;;;111.78;42.42;;;;;;;;;;5078127;28;20385;-88
2022/03/16 11:30:46;;;;;;;102.05;41.85;;;;;;;;;;5023840;28;20046;-83
2022/03/16 11:41:51;;;;;;;119.75;48.63;;;;;;;;;;5349068;22;20059;-86
2022/03/16 11:44:26;;;;;;;111.00;46.92;;;;;;;;;;5081598;28;20108;-86
2022/03/16 11:46:55;;;;;;;113.18;46.85;;;;;;;;;;5076228;28;20024;-84
2022/03/16 11:49:28;;;;;;;113.47;48.10;;;;;;;;;;5031890;22;20113;-87
2022/03/16 11:52:08;;;;;;;130.40;48.08;;;;;;;;;;5014596;28;20042;-83
2022/03/16 12:06:32;;;;;;;122.20;49.15;;;;;;;;;;1510999;26;20117;-89
2022/03/16 12:09:02;;;;;;;120.88;50.28;;;;;;;;;;5049843;28;20078;-86
2022/03/16 12:17:52;;;;;;;124.22;51.03;;;;;;;;;;5414678;22;20060;-88
2022/03/16 12:20:20;;;;;;;135.55;55.45;;;;;;;;;;5091319;22;20047;-85
2022/03/16 12:22:50;;;;;;;132.88;54.03;;;;;;;;;;5085193;28;20029;-86
2022/03/16 12:25:31;;;;;;;143.10;53.00;;;;;;;;;;5049867;28;20025;-88
2022/03/16 12:30:52;;;;;;;146.48;54.90;;;;;;;;;;5075355;28;20046;-85
2022/03/16 12:36:12;;;;;;;110.20;44.40;;;;;;;;;;5131354;22;20072;-86
2022/03/16 12:38:42;;;;;;;108.82;41.63;;;;;;;;;;5062788;28;20414;-89
2022/03/16 12:44:15;;;;;;;97.78;41.22;;;;;;;;;;4905018;26;20087;-88
2022/03/16 12:47:03;;;;;;;99.22;40.60;;;;;;;;;;5084449;28;20021;-90
2022/03/16 12:49:30;;;;;;;119.47;49.75;;;;;;;;;;5079302;28;20036;-80
2022/03/16 12:52:00;;;;;;;123.57;49.17;;;;;;;;;;5055698;28;20437;-81
2022/03/16 12:54:30;;;;;;;106.53;44.35;;;;;;;;;;5073356;28;20029;-81
2022/03/16 12:57:01;;;;;;;137.02;51.67;;;;;;;;;;5072839;28;20438;-80
2022/03/16 12:59:29;;;;;;;131.02;53.58;;;;;;;;;;5074044;28;20020;-85
2022/03/16 13:01:55;;;;;;;129.35;51.95;;;;;;;;;;5097437;28;20041;-86
2022/03/16 13:04:25;;;;;;;102.43;44.25;;;;;;;;;;5064735;28;20028;-85
2022/03/16 13:06:54;;;;;;;125.93;48.13;;;;;;;;;;5074458;28;20021;-87
2022/03/16 13:09:20;;;;;;;102.80;43.53;;;;;;;;;;5061262;28;20035;-87
2022/03/16 13:11:46;;;;;;;109.45;46.38;;;;;;;;;;5044436;28;20037;-90
2022/03/16 13:14:18;;;;;;;117.72;49.63;;;;;;;;;;5065956;28;20028;-89
2022/03/16 13:16:44;;;;;;;114.28;48.97;;;;;;;;;;5067650;28;20035;-90
2022/03/16 13:19:37;;;;;;;117.18;50.42;;;;;;;;;;5072446;28;20033;-94
2022/03/16 13:22:09;;;;;;;127.80;50.92;;;;;;;;;;5047702;28;20037;-87
2022/03/16 13:24:36;;;;;;;132.52;56.78;;;;;;;;;;5057140;28;20070;-84
2022/03/16 13:27:04;;;;;;;127.40;53.20;;;;;;;;;;5056756;28;20025;-84
2022/03/16 13:29:31;;;;;;;118.75;48.17;;;;;;;;;;5055013;28;20032;-85
2022/03/16 13:31:58;;;;;;;111.85;50.40;;;;;;;;;;5055381;28;20040;-83
2022/03/16 13:34:26;;;;;;;111.88;47.65;;;;;;;;;;5022511;28;20031;-85
2022/03/16 13:36:51;;;;;;;109.30;50.20;;;;;;;;;;5054990;28;20032;-88
2022/03/16 13:39:27;;;;;;;162.73;77.38;;;;;;;;;;5056310;28;20171;-87
2022/03/16 13:42:07;;;;;;;153.45;54.95;;;;;;;;;;5054735;28;20104;-86
2022/03/16 13:44:37;;;;;;;147.30;52.10;;;;;;;;;;5054876;28;20029;-84
2022/03/16 13:47:23;;;;;;;118.05;48.25;;;;;;;;;;5072223;28;20110;-83
2022/03/16 13:49:53;;;;;;;130.68;51.20;;;;;;;;;;5055612;28;20377;-84
2022/03/16 13:52:24;;;;;;;131.35;51.55;;;;;;;;;;5055175;28;20128;-82
2022/03/16 13:54:50;;;;;;;119.03;47.90;;;;;;;;;;5056186;28;20487;-84
2022/03/16 13:57:22;;;;;;;125.57;49.78;;;;;;;;;;5054345;28;20025;-82
2022/03/16 13:59:58;;;;;;;110.82;46.38;;;;;;;;;;5054668;28;20037;-84
2022/03/16 14:02:28;;;;;;;113.45;47.75;;;;;;;;;;5055653;28;20033;-83
2022/03/16 14:04:59;;;;;;;109.70;44.93;;;;;;;;;;5073057;28;20028;-90
2022/03/16 14:07:27;;;;;;;;;;;;;;;;;;5051984;28;20032;-87
2022/03/16 14:09:54;;;;;;;111.40;45.38;;;;;;;;;;5061938;28;19913;-88
2022/03/16 14:12:20;;;;;;;120.28;46.38;;;;;;;;;;5043572;28;20052;-87
2022/03/16 14:14:58;;;;;;;106.20;44.17;;;;;;;;;;5066190;28;20029;-87
2022/03/16 14:17:41;;;;;;;110.43;43.55;;;;;;;;;;5025658;28;20064;-88
2022/03/16 14:20:16;;;;;;;99.40;41.90;;;;;;;;;;5060507;28;20179;-87
2022/03/16 14:22:45;;;;;;;102.60;41.97;;;;;;;;;;5054586;28;20032;-86
2022/03/16 14:25:24;;;;;;;100.88;43.85;;;;;;;;;;5038090;28;20040;-79
2022/03/16 14:27:53;;;;;;;105.35;44.45;;;;;;;;;;5054084;28;20032;-81
2022/03/16 14:30:22;;;;;;;112.60;46.92;;;;;;;;;;5053859;28;20083;-79
2022/03/16 14:32:49;;;;;;;113.15;46.10;;;;;;;;;;5070590;28;20112;-77
2022/03/16 14:35:18;;;;;;;101.20;45.95;;;;;;;;;;5053664;28;20033;-78
2022/03/16 14:37:44;;;;;;;103.22;44.85;;;;;;;;;;5055039;28;20032;-85
2022/03/16 14:40:11;;;;;;;113.65;48.03;;;;;;;;;;5021295;28;20033;-85
2022/03/16 14:42:38;;;;;;;125.05;51.20;;;;;;;;;;5037620;28;20040;-84
2022/03/16 14:45:04;;;;;;;114.25;49.17;;;;;;;;;;5054372;28;20029;-84
2022/03/16 14:47:30;;;;;;;120.15;50.70;;;;;;;;;;5054789;28;20032;-84
2022/03/16 14:49:58;;;;;;;115.63;47.28;;;;;;;;;;5055324;28;20029;-82
2022/03/16 14:52:24;;;;;;;105.13;46.67;;;;;;;;;;5053613;28;20021;-86
2022/03/16 14:54:50;;;;;;;108.45;47.25;;;;;;;;;;5039367;28;20374;-86
2022/03/16 14:57:15;;;;;;;119.40;46.67;;;;;;;;;;5053669;28;20041;-89
2022/03/16 14:59:41;;;;;;;107.28;46.58;;;;;;;;;;5053734;28;20123;-87
2022/03/16 15:02:06;;;;;;;107.93;43.80;;;;;;;;;;5054910;28;20472;-87
2022/03/16 15:04:34;;;;;;;112.68;45.55;;;;;;;;;;5054203;28;20194;-88
2022/03/16 15:07:00;;;;;;;111.07;46.88;;;;;;;;;;5055478;28;20082;-88
2022/03/16 15:09:25;;;;;;;181.70;70.63;;;;;;;;;;5053561;28;20115;-85
2022/03/16 15:11:50;;;;;;;180.85;68.75;;;;;;;;;;5071514;28;20128;-82
2022/03/16 15:14:42;;;;;;;151.95;61.22;;;;;;;;;;5038522;28;20116;-82
2022/03/16 15:17:11;;;;;;;131.23;53.25;;;;;;;;;;5054918;28;20039;-83
2022/03/16 15:19:37;;;;;;;148.90;67.38;;;;;;;;;;5037591;28;20037;-83
2022/03/16 15:22:03;;;;;;;160.25;76.05;;;;;;;;;;5052535;28;20041;-87
2022/03/16 15:24:28;;;;;;;149.60;65.88;;;;;;;;;;5053644;28;20507;-84
2022/03/16 15:26:54;;;;;;;134.55;56.10;;;;;;;;;;5052624;28;20060;-83
2022/03/16 15:29:19;;;;;;;160.38;61.53;;;;;;;;;;5053071;28;20392;-82
2022/03/16 15:31:45;;;;;;;132.25;57.38;;;;;;;;;;5061371;28;20051;-82
2022/03/16 15:34:11;;;;;;;145.52;59.13;;;;;;;;;;5061000;28;20346;-80
2022/03/16 15:36:37;;;;;;;149.85;60.75;;;;;;;;;;5055332;28;20115;-80
2022/03/16 15:39:03;;;;;;;270.73;97.97;;;;;;;;;;5036179;28;20080;-82
2022/03/16 15:44:13;;;;;;;211.75;82.85;;;;;;;;;;5038681;28;20148;-82
2022/03/16 15:46:38;;;;;;;198.85;79.75;;;;;;;;;;5051996;28;20111;-82
2022/03/16 15:49:04;;;;;;;172.43;70.55;;;;;;;;;;5052826;28;20453;-82
2022/03/16 15:51:29;;;;;;;131.80;58.63;;;;;;;;;;5054134;28;20120;-82
2022/03/16 15:53:54;;;;;;;176.90;75.75;;;;;;;;;;5035883;28;20044;-82
2022/03/16 15:56:20;;;;;;;174.00;75.45;;;;;;;;;;5052451;28;20123;-82
2022/03/16 15:58:46;;;;;;;178.70;75.40;;;;;;;;;;5052771;28;20350;-83
2022/03/16 16:01:12;;;;;;;180.60;71.57;;;;;;;;;;5035499;28;20040;-82
2022/03/16 16:03:37;;;;;;;152.00;63.60;;;;;;;;;;5051246;28;20100;-82
2022/03/16 16:06:04;;;;;;;132.85;57.55;;;;;;;;;;5051126;28;20507;-82
2022/03/16 16:08:30;;;;;;;127.65;52.85;;;;;;;;;;5053289;28;20115;-81
2022/03/16 16:11:07;;;;;;;123.15;51.40;;;;;;;;;;5059006;28;20056;-81
2022/03/16 16:13:40;;;;;;;128.75;48.80;;;;;;;;;;5052525;28;20044;-82
2022/03/16 16:16:06;;;;;;;124.15;50.67;;;;;;;;;;5021332;28;20025;-81
2022/03/16 16:18:32;;;;;;;125.93;55.15;;;;;;;;;;5036000;28;20094;-82
2022/03/16 16:20:57;;;;;;;150.68;68.50;;;;;;;;;;5052457;28;20075;-82
2022/03/16 16:23:24;;;;;;;172.73;72.25;;;;;;;;;;5035707;28;20021;-82
2022/03/16 16:25:51;;;;;;;169.25;70.25;;;;;;;;;;5036378;28;20119;-82
2022/03/16 16:28:26;;;;;;;179.27;77.10;;;;;;;;;;5053189;28;20025;-81
2022/03/16 16:30:53;;;;;;;217.80;90.35;;;;;;;;;;5054191;28;20040;-81
2022/03/16 16:33:19;;;;;;;272.52;105.60;;;;;;;;;;5052655;28;20120;-81
2022/03/16 16:35:44;;;;;;;251.40;96.88;;;;;;;;;;5035986;28;20128;-84
2022/03/16 16:38:13;;;;;;;238.77;96.40;;;;;;;;;;5052299;28;20032;-84